Time;durP1;ratioP1;P1;durP2;ratioP2;P2;SDS_P1;SDS_P2;PMS_P1;PMS_P2;Temp;Humidity;BMP_temperature;BMP_pressure;BME280_temperature;BME280_humidity;BME280_pressure;Samples;Min_cycle;Max_cycle;Signal;HPM_P1;HPM_P2
2022/01/29 00:02:22;;;;;;;5.78;0.80;;;27.80;99.90;;;;;;5094257;28;20198;-93
2022/01/29 00:04:54;;;;;;;6.05;1.20;;;27.80;99.90;;;;;;5077480;28;20229;-91
2022/01/29 00:07:26;;;;;;;2.30;1.00;;;27.80;99.90;;;;;;5084906;28;20227;-94
2022/01/29 00:10:03;;;;;;;6.40;1.10;;;27.80;99.90;;;;;;5089356;28;20195;-94
2022/01/29 00:15:21;;;;;;;3.50;1.00;;;28.10;99.90;;;;;;5069310;28;20199;-96
2022/01/29 00:20:42;;;;;;;4.32;1.13;;;28.20;99.90;;;;;;5098699;28;20605;-95
2022/01/29 00:26:03;;;;;;;5.80;1.13;;;28.30;99.90;;;;;;5068430;28;20276;-95
2022/01/29 00:28:36;;;;;;;7.40;1.15;;;28.40;99.90;;;;;;5085261;28;20215;-96
2022/01/29 00:31:10;;;;;;;3.53;0.93;;;28.40;99.90;;;;;;5111153;28;20191;-94
2022/01/29 00:33:45;;;;;;;3.80;1.23;;;28.40;99.90;;;;;;5081399;28;20196;-95
2022/01/29 00:36:17;;;;;;;2.30;1.02;;;28.40;99.90;;;;;;5071400;28;20192;-95
2022/01/29 00:38:53;;;;;;;2.78;0.90;;;28.40;99.90;;;;;;5081264;28;20215;-94
2022/01/29 00:41:28;;;;;;;2.35;0.98;;;28.40;99.90;;;;;;5079467;28;20256;-95
2022/01/29 00:44:02;;;;;;;3.38;1.15;;;28.40;99.90;;;;;;5070937;28;20187;-94
2022/01/29 00:46:32;;;;;;;5.97;0.82;;;28.40;99.90;;;;;;5061358;28;20231;-93
2022/01/29 00:49:07;;;;;;;4.00;1.10;;;28.60;99.90;;;;;;5093310;28;20191;-93
2022/01/29 00:51:38;;;;;;;3.55;1.02;;;28.60;99.90;;;;;;5101777;28;20207;-94
2022/01/29 00:54:10;;;;;;;5.40;1.10;;;28.60;99.90;;;;;;5099847;27;20206;-94
2022/01/29 00:56:45;;;;;;;2.88;0.85;;;28.70;99.90;;;;;;5103453;28;20203;-94
2022/01/29 00:59:16;;;;;;;3.85;1.10;;;28.70;99.90;;;;;;5104801;28;20199;-94
2022/01/29 01:01:47;;;;;;;4.47;1.00;;;28.70;99.90;;;;;;5087184;28;20594;-94
2022/01/29 01:04:22;;;;;;;4.00;0.75;;;28.70;99.90;;;;;;5086626;28;20670;-86
2022/01/29 01:06:56;;;;;;;4.88;0.95;;;28.70;99.90;;;;;;5097292;28;20218;-93
2022/01/29 01:09:30;;;;;;;5.53;1.10;;;28.70;99.90;;;;;;5081879;28;20202;-94
2022/01/29 01:12:07;;;;;;;5.63;1.23;;;28.70;99.90;;;;;;5097386;28;20195;-95
2022/01/29 01:14:39;;;;;;;4.65;1.20;;;28.70;99.90;;;;;;5097577;28;20203;-95
2022/01/29 01:17:11;;;;;;;5.40;1.13;;;28.70;99.90;;;;;;5093892;28;20199;-96
2022/01/29 01:19:48;;;;;;;4.32;1.13;;;28.60;99.90;;;;;;5066600;28;20205;-95
2022/01/29 01:22:19;;;;;;;3.88;0.85;;;28.70;99.90;;;;;;5061814;28;20204;-94
2022/01/29 01:24:51;;;;;;;4.57;1.02;;;28.60;99.90;;;;;;5062352;28;20194;-95
2022/01/29 01:27:22;;;;;;;2.97;0.90;;;28.50;99.90;;;;;;5059548;28;20235;-95
2022/01/29 01:29:53;;;;;;;4.13;1.30;;;28.50;99.90;;;;;;5059056;28;20199;-92
2022/01/29 01:32:24;;;;;;;8.75;1.20;;;28.50;99.90;;;;;;5093992;28;20215;-90
2022/01/29 01:35:07;;;;;;;2.90;1.15;;;28.40;99.90;;;;;;5097249;28;20179;-91
2022/01/29 01:37:45;;;;;;;3.63;1.10;;;28.40;99.90;;;;;;5081419;28;20573;-90
2022/01/29 01:40:18;;;;;;;2.88;0.90;;;28.40;99.90;;;;;;5079526;28;21657;-92
2022/01/29 01:42:51;;;;;;;5.15;0.90;;;28.40;99.90;;;;;;5096557;28;20557;-85
2022/01/29 01:45:24;;;;;;;4.45;1.00;;;28.50;99.90;;;;;;5096329;28;20187;-91
2022/01/29 01:47:56;;;;;;;4.88;1.02;;;28.60;99.90;;;;;;5068975;28;20220;-91
2022/01/29 01:50:31;;;;;;;5.18;1.42;;;28.60;99.90;;;;;;5085531;28;20240;-95
2022/01/29 01:53:03;;;;;;;3.47;0.98;;;28.60;99.90;;;;;;5092324;28;20217;-90
2022/01/29 01:55:36;;;;;;;4.88;1.10;;;28.70;99.90;;;;;;5078974;28;20238;-90
2022/01/29 01:58:10;;;;;;;6.30;1.33;;;28.70;99.90;;;;;;5077947;28;20187;-90
2022/01/29 02:00:41;;;;;;;5.10;1.17;;;28.70;99.90;;;;;;5052295;28;20233;-91
2022/01/29 02:03:13;;;;;;;7.10;1.25;;;28.70;99.90;;;;;;5052466;28;20215;-90
2022/01/29 02:05:48;;;;;;;4.07;1.05;;;28.60;99.90;;;;;;5053206;28;20192;-91
2022/01/29 02:08:20;;;;;;;6.20;1.02;;;28.60;99.90;;;;;;5090307;28;20236;-91
2022/01/29 02:10:53;;;;;;;5.20;1.45;;;28.50;99.90;;;;;;5086092;28;20197;-91
2022/01/29 02:13:28;;;;;;;4.75;1.23;;;28.60;99.90;;;;;;5057152;28;20268;-88
2022/01/29 02:16:02;;;;;;;6.20;1.50;;;28.50;99.90;;;;;;5061447;28;20257;-91
2022/01/29 02:18:34;;;;;;;6.32;1.30;;;28.50;99.90;;;;;;5077651;28;20207;-90
2022/01/29 02:21:08;;;;;;;6.70;1.42;;;28.50;99.90;;;;;;5080079;28;20200;-89
2022/01/29 02:23:43;;;;;;;4.97;1.20;;;28.50;99.90;;;;;;5091637;28;20191;-89
2022/01/29 02:26:14;;;;;;;6.20;1.20;;;28.60;99.90;;;;;;5090468;28;20204;-90
2022/01/29 02:28:46;;;;;;;5.88;1.25;;;28.60;99.90;;;;;;5095188;28;20305;-89
2022/01/29 02:31:17;;;;;;;4.20;1.10;;;28.80;99.90;;;;;;5088832;28;20252;-88
2022/01/29 02:33:48;;;;;;;2.67;1.05;;;28.80;99.90;;;;;;5080878;28;20229;-89
2022/01/29 02:36:19;;;;;;;3.83;1.10;;;28.90;99.90;;;;;;5074318;28;20208;-89
2022/01/29 02:38:53;;;;;;;4.30;1.00;;;29.00;99.90;;;;;;5096421;28;20199;-94
2022/01/29 02:41:24;;;;;;;4.20;1.10;;;29.00;99.90;;;;;;5102783;28;20220;-94
2022/01/29 02:44:00;;;;;;;5.85;1.23;;;29.10;99.90;;;;;;5084137;28;20200;-91
2022/01/29 02:46:47;;;;;;;3.60;1.30;;;29.10;99.90;;;;;;5079007;28;20588;-91
2022/01/29 02:49:20;;;;;;;4.15;1.23;;;29.20;99.90;;;;;;5096832;28;20227;-90
2022/01/29 02:51:53;;;;;;;2.65;1.00;;;29.20;99.90;;;;;;5071059;28;20215;-91
2022/01/29 02:54:27;;;;;;;4.50;0.88;;;29.30;99.90;;;;;;5099462;28;20211;-91
2022/01/29 02:56:58;;;;;;;4.88;1.10;;;29.30;99.90;;;;;;5092142;28;20191;-92
2022/01/29 02:59:30;;;;;;;4.47;0.90;;;29.30;99.90;;;;;;5101151;28;20215;-95
2022/01/29 03:02:01;;;;;;;4.53;1.08;;;29.40;99.90;;;;;;5082301;28;20236;-92
2022/01/29 03:04:33;;;;;;;5.32;1.27;;;29.40;99.90;;;;;;5058642;28;20216;-92
2022/01/29 03:07:05;;;;;;;6.82;1.10;;;29.40;99.90;;;;;;5065460;28;20226;-93
2022/01/29 03:09:39;;;;;;;5.78;1.00;;;29.50;99.90;;;;;;5077290;28;20536;-89
2022/01/29 03:12:11;;;;;;;3.47;0.90;;;29.40;99.90;;;;;;5076883;28;20200;-91
2022/01/29 03:14:51;;;;;;;3.67;0.75;;;29.50;99.90;;;;;;5082923;28;20257;-93
2022/01/29 03:17:22;;;;;;;5.07;0.95;;;29.50;99.90;;;;;;5095443;28;20199;-91
2022/01/29 03:19:54;;;;;;;5.70;1.20;;;29.50;99.90;;;;;;5094751;28;20207;-93
2022/01/29 03:22:26;;;;;;;4.65;0.90;;;29.60;99.90;;;;;;5100658;28;20195;-93
2022/01/29 03:25:00;;;;;;;4.38;1.00;;;29.70;99.90;;;;;;5083640;28;20188;-91
2022/01/29 03:27:31;;;;;;;4.72;0.88;;;29.80;99.90;;;;;;5083492;28;20235;-91
2022/01/29 03:30:04;;;;;;;4.78;1.33;;;29.80;99.90;;;;;;5079027;28;20204;-93
2022/01/29 03:32:35;;;;;;;4.03;0.95;;;29.80;99.90;;;;;;5070161;28;20659;-91
2022/01/29 03:35:06;;;;;;;6.00;1.27;;;29.80;99.90;;;;;;5056991;28;20193;-90
2022/01/29 03:37:38;;;;;;;3.95;1.08;;;29.70;99.90;;;;;;5078587;28;20195;-90
2022/01/29 03:40:11;;;;;;;5.40;0.90;;;29.60;99.90;;;;;;5093369;28;20195;-92
2022/01/29 03:42:46;;;;;;;4.05;1.00;;;29.60;99.90;;;;;;5064569;28;20219;-90
2022/01/29 03:45:19;;;;;;;3.00;0.90;;;29.60;99.90;;;;;;5086733;28;20306;-89
2022/01/29 03:47:50;;;;;;;5.60;1.10;;;29.60;99.90;;;;;;5095253;28;20222;-91
2022/01/29 03:50:21;;;;;;;4.40;1.13;;;29.60;99.90;;;;;;5095297;28;20214;-89
2022/01/29 03:52:53;;;;;;;4.75;1.10;;;29.60;99.90;;;;;;5091026;28;20199;-90
2022/01/29 03:55:26;;;;;;;7.00;1.40;;;29.60;99.90;;;;;;5095279;28;20221;-90
2022/01/29 03:57:56;;;;;;;7.55;1.48;;;29.50;99.90;;;;;;5066981;28;20727;-90
2022/01/29 04:00:28;;;;;;;6.72;1.00;;;29.50;99.90;;;;;;5078866;28;20203;-89
2022/01/29 04:03:00;;;;;;;5.75;1.00;;;29.40;99.90;;;;;;5062872;28;20678;-93
2022/01/29 04:05:30;;;;;;;6.55;1.40;;;29.40;99.90;;;;;;5056476;28;20193;-92
2022/01/29 04:08:02;;;;;;;6.10;1.50;;;29.40;99.90;;;;;;5086374;28;20223;-93
2022/01/29 04:10:36;;;;;;;5.68;1.20;;;29.40;99.90;;;;;;5098518;28;20199;-91
2022/01/29 04:13:09;;;;;;;6.43;1.45;;;29.40;99.90;;;;;;5086143;28;20190;-94
2022/01/29 04:15:42;;;;;;;7.18;1.50;;;29.50;99.90;;;;;;5096391;28;20195;-93
2022/01/29 04:18:13;;;;;;;6.15;1.33;;;29.60;99.90;;;;;;5092198;28;20195;-91
2022/01/29 04:20:44;;;;;;;7.30;1.60;;;29.70;99.90;;;;;;5087674;28;20204;-90
2022/01/29 04:23:18;;;;;;;8.25;1.50;;;29.80;99.90;;;;;;5097110;28;20570;-96
2022/01/29 04:25:57;;;;;;;5.00;1.20;;;29.70;99.90;;;;;;5100753;28;20635;-95
2022/01/29 04:28:31;;;;;;;6.63;1.23;;;29.60;99.90;;;;;;5097568;28;20233;-90
2022/01/29 04:31:08;;;;;;;6.07;1.27;;;29.50;99.90;;;;;;5099904;28;20236;-96
2022/01/29 04:33:39;;;;;;;5.25;1.40;;;29.50;99.90;;;;;;5085418;28;20199;-88
2022/01/29 04:36:11;;;;;;;6.15;1.55;;;29.30;99.90;;;;;;5089001;28;20592;-91
2022/01/29 04:38:41;;;;;;;8.93;1.73;;;29.20;99.90;;;;;;5095690;28;20719;-89
2022/01/29 04:41:15;;;;;;;5.80;1.38;;;29.20;99.90;;;;;;5087716;28;20207;-89
2022/01/29 04:43:46;;;;;;;5.63;1.20;;;29.20;99.90;;;;;;5077750;28;20219;-91
2022/01/29 04:46:18;;;;;;;6.65;1.63;;;29.00;99.90;;;;;;5093017;28;20356;-89
2022/01/29 04:48:49;;;;;;;6.65;1.50;;;29.10;99.90;;;;;;5078524;28;20227;-88
2022/01/29 04:51:20;;;;;;;6.82;1.80;;;29.20;99.90;;;;;;5075828;28;20562;-89
2022/01/29 04:53:51;;;;;;;7.18;1.75;;;29.20;99.90;;;;;;5078624;28;20195;-88
2022/01/29 04:56:24;;;;;;;8.52;1.50;;;29.20;99.90;;;;;;5094548;28;20294;-88
2022/01/29 04:58:55;;;;;;;7.00;1.50;;;29.20;99.90;;;;;;5092220;28;20187;-87
2022/01/29 05:01:25;;;;;;;6.88;1.90;;;29.30;99.90;;;;;;5093419;28;20728;-89
2022/01/29 05:03:56;;;;;;;8.30;1.52;;;29.30;99.90;;;;;;5091733;28;20195;-90
2022/01/29 05:06:27;;;;;;;11.05;2.00;;;29.30;99.90;;;;;;5075423;28;20271;-87
2022/01/29 05:08:58;;;;;;;9.00;1.80;;;29.40;99.90;;;;;;5079598;28;20219;-88
2022/01/29 05:11:31;;;;;;;8.25;1.58;;;29.40;99.90;;;;;;5073217;28;20248;-88
2022/01/29 05:14:03;;;;;;;7.05;1.80;;;29.40;99.90;;;;;;5093386;28;20191;-87
2022/01/29 05:16:54;;;;;;;7.88;1.67;;;29.60;99.90;;;;;;5074838;28;20674;-88
2022/01/29 05:27:45;;;;;;;6.57;1.70;;;30.30;99.90;;;;;;5082775;28;20267;-88
2022/01/29 05:30:16;;;;;;;8.45;1.77;;;30.50;99.90;;;;;;5093389;28;20253;-89
2022/01/29 05:32:47;;;;;;;8.48;1.75;;;30.70;99.90;;;;;;5093368;28;20187;-88
2022/01/29 05:35:18;;;;;;;7.57;1.90;;;30.70;99.90;;;;;;5094362;28;20195;-88
2022/01/29 05:37:51;;;;;;;8.88;2.10;;;30.70;99.90;;;;;;5094199;28;20671;-95
2022/01/29 05:40:22;;;;;;;8.43;2.13;;;30.60;99.90;;;;;;5076266;28;20208;-96
2022/01/29 05:42:57;;;;;;;7.28;1.80;;;30.50;99.90;;;;;;5075175;28;20677;-95
2022/01/29 05:45:28;;;;;;;6.05;1.75;;;30.30;99.90;;;;;;5098126;28;20187;-89
2022/01/29 05:47:59;;;;;;;10.45;2.20;;;30.30;99.90;;;;;;5075579;28;20222;-90
2022/01/29 05:50:29;;;;;;;7.10;1.75;;;30.20;99.90;;;;;;5096651;28;20207;-89
2022/01/29 05:53:00;;;;;;;7.90;1.80;;;29.90;99.90;;;;;;5094431;28;20191;-89
2022/01/29 05:55:31;;;;;;;9.32;2.08;;;29.70;99.90;;;;;;5089465;28;20252;-89
2022/01/29 05:58:07;;;;;;;5.75;1.83;;;29.50;99.90;;;;;;5063132;28;20671;-89
2022/01/29 06:00:39;;;;;;;8.68;2.17;;;29.30;99.90;;;;;;5091513;28;20280;-88
2022/01/29 06:03:11;;;;;;;10.25;2.17;;;29.20;99.90;;;;;;5079669;28;20245;-89
2022/01/29 06:05:44;;;;;;;10.30;2.20;;;29.00;99.90;;;;;;5092451;28;20207;-88
2022/01/29 06:08:15;;;;;;;11.10;2.20;;;28.80;99.90;;;;;;5092141;28;20276;-92
2022/01/29 06:10:46;;;;;;;10.25;1.95;;;28.70;99.90;;;;;;5090195;28;20241;-93
2022/01/29 06:13:20;;;;;;;10.77;2.28;;;28.70;99.90;;;;;;5093419;28;20207;-95
2022/01/29 06:15:53;;;;;;;11.70;2.20;;;28.60;99.90;;;;;;5083301;28;20225;-95
2022/01/29 06:18:26;;;;;;;6.38;1.70;;;28.60;99.90;;;;;;5074848;28;20271;-92
2022/01/29 06:21:03;;;;;;;10.73;2.40;;;28.50;99.90;;;;;;5075392;28;20204;-93
2022/01/29 06:23:36;;;;;;;7.75;2.33;;;28.40;99.90;;;;;;5059094;28;20211;-95
2022/01/29 06:26:09;;;;;;;12.00;2.40;;;28.40;99.90;;;;;;5086252;28;20195;-93
2022/01/29 06:28:43;;;;;;;9.20;2.42;;;28.30;99.90;;;;;;5100510;28;20227;-93
2022/01/29 06:31:14;;;;;;;10.27;2.20;;;28.30;99.90;;;;;;5086454;28;20717;-95
2022/01/29 06:33:45;;;;;;;8.70;2.15;;;28.10;99.90;;;;;;5078781;28;20207;-94
2022/01/29 06:36:16;;;;;;;10.20;2.30;;;28.10;99.90;;;;;;5053571;28;20230;-93
2022/01/29 06:38:49;;;;;;;9.15;2.10;;;28.00;99.90;;;;;;5052665;28;20201;-94
2022/01/29 06:41:21;;;;;;;13.18;2.55;;;28.00;99.90;;;;;;5071506;28;20680;-91
2022/01/29 06:43:55;;;;;;;13.65;2.33;;;28.00;99.90;;;;;;5078482;28;20196;-89
2022/01/29 06:46:26;;;;;;;9.00;2.03;;;27.90;99.90;;;;;;5072534;28;20196;-89
2022/01/29 06:48:56;;;;;;;11.48;2.47;;;27.90;99.90;;;;;;5070049;28;20219;-88
2022/01/29 06:51:27;;;;;;;8.95;2.03;;;27.80;99.90;;;;;;5072961;28;20208;-88
2022/01/29 06:53:59;;;;;;;12.10;2.42;;;27.80;99.90;;;;;;5090311;28;20243;-91
2022/01/29 06:56:30;;;;;;;11.65;2.35;;;27.80;99.90;;;;;;5091646;28;20195;-91
2022/01/29 06:59:04;;;;;;;11.82;2.08;;;27.80;99.90;;;;;;5091899;28;20188;-89
2022/01/29 07:01:35;;;;;;;9.82;2.30;;;27.80;99.90;;;;;;5088869;28;20231;-89
2022/01/29 07:04:07;;;;;;;9.57;2.08;;;27.70;99.90;;;;;;5061110;28;20191;-89
2022/01/29 07:06:38;;;;;;;10.18;2.35;;;27.70;99.90;;;;;;5057552;28;20257;-89
2022/01/29 07:09:09;;;;;;;14.30;2.53;;;27.60;99.90;;;;;;5083554;28;20235;-89
2022/01/29 07:11:42;;;;;;;11.80;2.60;;;27.60;99.90;;;;;;5074340;28;20200;-91
2022/01/29 07:14:19;;;;;;;10.20;2.45;;;27.50;99.90;;;;;;5089996;28;20286;-88
2022/01/29 07:16:51;;;;;;;11.93;2.70;;;27.50;99.90;;;;;;5085411;28;20237;-91
2022/01/29 07:19:21;;;;;;;9.52;2.53;;;27.50;99.90;;;;;;5084539;28;20401;-88
2022/01/29 07:21:52;;;;;;;11.77;2.70;;;27.50;99.90;;;;;;5092983;28;20208;-94
2022/01/29 07:24:24;;;;;;;12.82;2.78;;;27.40;99.90;;;;;;5089134;28;20213;-92
2022/01/29 07:26:55;;;;;;;19.10;2.60;;;27.40;99.90;;;;;;5078866;28;20235;-91
2022/01/29 07:29:28;;;;;;;12.45;2.40;;;27.40;99.90;;;;;;5055167;28;20216;-91
2022/01/29 07:32:00;;;;;;;10.20;2.22;;;27.30;99.90;;;;;;5065068;28;20207;-92
2022/01/29 07:34:32;;;;;;;12.43;2.40;;;27.20;99.90;;;;;;5097854;28;20214;-92
2022/01/29 07:37:03;;;;;;;12.75;3.03;;;27.10;99.90;;;;;;5093730;28;20203;-92
2022/01/29 07:39:34;;;;;;;12.60;2.65;;;27.10;99.90;;;;;;5083598;28;20200;-86
2022/01/29 07:42:05;;;;;;;12.48;2.67;;;27.10;99.90;;;;;;5080306;28;20625;-91
2022/01/29 07:44:38;;;;;;;12.77;2.85;;;27.10;99.90;;;;;;5084189;28;20191;-90
2022/01/29 07:47:09;;;;;;;13.95;2.40;;;27.10;99.90;;;;;;5085291;28;20211;-90
2022/01/29 07:49:40;;;;;;;12.27;2.60;;;27.10;99.90;;;;;;5097443;28;20223;-92
2022/01/29 07:52:11;;;;;;;14.52;2.75;;;27.10;99.90;;;;;;5085153;28;20198;-94
2022/01/29 07:54:41;;;;;;;17.05;2.95;;;27.10;99.90;;;;;;5094031;28;20239;-93
2022/01/29 07:57:13;;;;;;;14.82;2.67;;;27.00;99.90;;;;;;5093623;28;20672;-94
2022/01/29 07:59:47;;;;;;;16.42;2.95;;;27.00;99.90;;;;;;5093811;28;20556;-93
2022/01/29 08:02:18;;;;;;;18.50;3.05;;;26.90;99.90;;;;;;5093753;28;20296;-95
2022/01/29 08:04:49;;;;;;;12.60;2.50;;;26.90;99.90;;;;;;5092013;28;20574;-93
2022/01/29 08:07:20;;;;;;;12.65;3.00;;;26.80;99.90;;;;;;5093788;28;20207;-94
2022/01/29 08:09:52;;;;;;;15.27;3.40;;;26.80;99.90;;;;;;5096032;28;20227;-93
2022/01/29 08:12:24;;;;;;;13.00;3.15;;;26.80;99.90;;;;;;5100641;27;20191;-91
2022/01/29 08:14:58;;;;;;;12.75;2.75;;;26.80;99.90;;;;;;5076110;28;20191;-92
2022/01/29 08:17:28;;;;;;;11.70;2.50;;;26.70;99.90;;;;;;5072965;28;20192;-91
2022/01/29 08:20:00;;;;;;;13.95;3.00;;;26.70;99.90;;;;;;5083394;28;20199;-94
2022/01/29 08:22:31;;;;;;;10.82;2.50;;;26.70;99.90;;;;;;5079280;28;20718;-93
2022/01/29 08:25:02;;;;;;;12.05;2.67;;;26.70;99.90;;;;;;5055793;28;20589;-93
2022/01/29 08:27:35;;;;;;;12.02;2.67;;;26.70;99.90;;;;;;5053441;28;20220;-92
2022/01/29 08:30:10;;;;;;;15.00;3.03;;;26.70;99.90;;;;;;5054325;28;20217;-93
2022/01/29 08:32:43;;;;;;;16.10;3.08;;;26.70;99.90;;;;;;5069548;28;20199;-94
2022/01/29 08:35:15;;;;;;;13.80;2.90;;;26.70;99.90;;;;;;5094020;28;20195;-92
2022/01/29 08:37:47;;;;;;;13.55;3.05;;;26.70;99.90;;;;;;5093050;28;20191;-96
2022/01/29 08:40:22;;;;;;;13.38;2.58;;;26.60;99.90;;;;;;5084083;28;20689;-90
2022/01/29 08:42:53;;;;;;;16.70;3.13;;;26.60;99.90;;;;;;5075855;28;20211;-90
2022/01/29 08:45:26;;;;;;;12.50;2.90;;;26.60;99.90;;;;;;5092774;28;20187;-90
2022/01/29 08:47:57;;;;;;;15.95;3.33;;;26.60;99.90;;;;;;5081385;28;20219;-90
2022/01/29 08:50:29;;;;;;;15.05;3.08;;;26.60;99.90;;;;;;5053761;28;20698;-90
2022/01/29 08:53:00;;;;;;;15.05;3.00;;;26.50;99.90;;;;;;5080414;28;20211;-93
2022/01/29 08:55:36;;;;;;;12.40;2.78;;;26.50;99.90;;;;;;5084756;28;20211;-90
2022/01/29 08:58:07;;;;;;;11.88;3.08;;;26.50;99.90;;;;;;5086034;28;20191;-92
2022/01/29 09:03:36;;;;;;;12.23;2.78;;;26.50;99.90;;;;;;5071178;28;20223;-91
2022/01/29 09:06:10;;;;;;;16.15;3.13;;;26.50;99.90;;;;;;5074921;28;20762;-92
2022/01/29 09:08:45;;;;;;;14.35;3.63;;;26.50;99.90;;;;;;5092608;28;20619;-91
2022/01/29 09:11:19;;;;;;;15.30;3.25;;;26.40;99.90;;;;;;5078404;28;20191;-92
2022/01/29 09:13:50;;;;;;;15.27;3.28;;;26.50;99.90;;;;;;5073600;28;20473;-90
2022/01/29 09:16:24;;;;;;;21.27;3.53;;;26.50;99.90;;;;;;5072173;28;20188;-92
2022/01/29 09:18:56;;;;;;;21.13;3.65;;;26.50;99.90;;;;;;5088041;28;20558;-92
2022/01/29 09:21:27;;;;;;;14.63;3.42;;;26.50;99.90;;;;;;5084014;28;20200;-91
2022/01/29 09:23:58;;;;;;;13.82;3.20;;;26.40;99.90;;;;;;5092626;28;20196;-94
2022/01/29 09:26:32;;;;;;;14.50;2.90;;;26.40;99.90;;;;;;5074431;28;20207;-90
2022/01/29 09:29:03;;;;;;;14.15;3.30;;;26.40;99.90;;;;;;5093043;28;20257;-93
2022/01/29 09:31:37;;;;;;;17.35;3.33;;;26.40;99.90;;;;;;5091297;28;20195;-93
2022/01/29 09:34:07;;;;;;;18.67;3.42;;;26.40;99.90;;;;;;5093437;28;20206;-91
2022/01/29 09:36:38;;;;;;;13.63;3.15;;;26.40;99.90;;;;;;5091581;28;20195;-91
2022/01/29 09:39:10;;;;;;;13.52;3.35;;;26.40;99.90;;;;;;5086967;28;20191;-91
2022/01/29 09:41:46;;;;;;;16.38;3.10;;;26.40;99.90;;;;;;5083888;28;20191;-90
2022/01/29 09:44:17;;;;;;;13.27;2.67;;;26.30;99.90;;;;;;5059921;28;20196;-92
2022/01/29 09:46:55;;;;;;;13.63;2.80;;;26.30;99.90;;;;;;5073262;28;20283;-93
2022/01/29 09:49:25;;;;;;;16.52;3.10;;;26.40;99.90;;;;;;5095292;28;20311;-93
2022/01/29 09:51:57;;;;;;;15.52;3.00;;;26.30;99.90;;;;;;5090937;28;20195;-92
2022/01/29 09:54:29;;;;;;;17.75;3.25;;;26.30;99.90;;;;;;5078604;28;20198;-91
2022/01/29 09:57:00;;;;;;;15.68;2.75;;;26.30;99.90;;;;;;5072630;28;20198;-95
2022/01/29 09:59:31;;;;;;;15.70;3.22;;;26.20;99.90;;;;;;5086503;28;20261;-88
2022/01/29 10:02:06;;;;;;;19.23;3.63;;;26.20;99.90;;;;;;5059601;28;20224;-89
2022/01/29 10:04:50;;;;;;;14.07;3.03;;;26.20;99.90;;;;;;5086118;28;20226;-92
2022/01/29 10:07:24;;;;;;;14.85;3.22;;;26.20;99.90;;;;;;5068391;28;20196;-90
2022/01/29 10:09:55;;;;;;;15.68;3.03;;;26.20;99.90;;;;;;5077805;28;20206;-90
2022/01/29 10:12:28;;;;;;;10.68;3.00;;;26.10;99.90;;;;;;5091665;28;20248;-91
2022/01/29 10:15:02;;;;;;;12.68;2.72;;;26.10;99.90;;;;;;5091124;28;20715;-93
2022/01/29 10:17:49;;;;;;;16.00;3.10;;;26.20;99.90;;;;;;5092925;28;20199;-93
2022/01/29 10:20:23;;;;;;;14.95;2.85;;;26.20;99.90;;;;;;5052545;28;20254;-93
2022/01/29 10:22:56;;;;;;;12.55;2.70;;;26.10;99.90;;;;;;5076992;28;20195;-91
2022/01/29 10:25:31;;;;;;;17.83;3.20;;;26.10;99.90;;;;;;5057086;28;20207;-92
2022/01/29 10:28:16;;;;;;;14.85;3.00;;;26.10;99.90;;;;;;5052390;28;20243;-92
2022/01/29 10:31:04;;;;;;;13.95;3.20;;;26.10;99.90;;;;;;5052576;28;20302;-92
2022/01/29 10:33:37;;;;;;;19.00;3.45;;;26.10;99.90;;;;;;5090182;28;20192;-91
2022/01/29 10:36:09;;;;;;;12.82;2.97;;;26.20;99.90;;;;;;5091155;28;20722;-91
2022/01/29 10:38:51;;;;;;;13.25;2.92;;;26.10;99.90;;;;;;5092371;28;20191;-89
2022/01/29 10:41:27;;;;;;;16.70;3.50;;;26.10;99.90;;;;;;5056090;28;20196;-94
2022/01/29 10:44:14;;;;;;;15.98;3.30;;;26.10;99.90;;;;;;5095098;28;20202;-95
2022/01/29 10:46:48;;;;;;;12.93;2.70;;;26.10;99.90;;;;;;5082591;28;20222;-95
2022/01/29 10:49:26;;;;;;;13.43;2.97;;;26.10;99.90;;;;;;5072020;28;20204;-94
2022/01/29 10:52:05;;;;;;;16.58;3.17;;;26.10;99.90;;;;;;5053080;28;20193;-95
2022/01/29 10:54:36;;;;;;;15.40;3.05;;;26.00;99.90;;;;;;5074884;28;20192;-92
2022/01/29 10:57:11;;;;;;;12.60;3.35;;;26.10;99.90;;;;;;5088505;28;20211;-90
2022/01/29 10:59:51;;;;;;;15.82;3.05;;;26.00;99.90;;;;;;5103350;28;20198;-89
2022/01/29 11:02:29;;;;;;;12.45;2.45;;;26.00;99.90;;;;;;5074515;28;20229;-88
2022/01/29 11:05:04;;;;;;;12.93;2.75;;;26.00;99.90;;;;;;5089519;28;20219;-88
2022/01/29 11:07:37;;;;;;;15.35;2.97;;;26.00;99.90;;;;;;5092825;28;20197;-95
2022/01/29 11:13:02;;;;;;;16.15;3.10;;;26.00;99.90;;;;;;5101619;27;20199;-95
2022/01/29 11:15:37;;;;;;;15.45;3.10;;;26.00;99.90;;;;;;5064452;28;20543;-92
2022/01/29 11:18:09;;;;;;;14.50;3.25;;;26.00;99.90;;;;;;5095134;28;20199;-95
2022/01/29 11:20:43;;;;;;;13.70;3.08;;;26.00;99.90;;;;;;5079966;28;20209;-90
2022/01/29 11:23:14;;;;;;;14.88;2.95;;;26.00;99.90;;;;;;5068987;28;20650;-95
2022/01/29 11:25:46;;;;;;;13.32;2.92;;;26.00;99.90;;;;;;5096091;28;20233;-95
2022/01/29 11:28:19;;;;;;;15.75;3.42;;;26.00;99.90;;;;;;5102052;28;20241;-94
2022/01/29 11:31:12;;;;;;;13.77;2.90;;;26.00;99.90;;;;;;5107054;28;20227;-93
2022/01/29 11:34:15;;;;;;;13.07;3.30;;;26.00;99.90;;;;;;5082365;28;20195;-92
2022/01/29 11:37:10;;;;;;;13.57;3.22;;;25.90;99.90;;;;;;5104283;28;20192;-92
2022/01/29 11:39:42;;;;;;;13.68;2.78;;;25.90;99.90;;;;;;5078756;28;20195;-89
2022/01/29 11:42:32;;;;;;;17.92;3.47;;;25.90;99.90;;;;;;5083225;28;20199;-92
2022/01/29 11:45:39;;;;;;;15.65;3.17;;;25.80;99.90;;;;;;5100431;28;20263;-93
2022/01/29 11:48:34;;;;;;;17.00;3.33;;;25.80;99.90;;;;;;5107089;28;20206;-86
2022/01/29 11:51:07;;;;;;;14.15;2.83;;;25.80;99.90;;;;;;5110556;28;20280;-92
2022/01/29 11:54:05;;;;;;;12.80;2.50;;;25.80;99.90;;;;;;5094640;28;20227;-93
2022/01/29 11:56:36;;;;;;;17.15;3.42;;;25.80;99.90;;;;;;5059035;28;20200;-90
2022/01/29 11:59:31;;;;;;;13.20;2.70;;;25.80;99.90;;;;;;5095232;28;20190;-91
2022/01/29 12:02:04;;;;;;;10.45;2.53;;;25.80;99.90;;;;;;5056242;28;20203;-92
2022/01/29 12:05:07;;;;;;;11.57;2.58;;;25.80;99.90;;;;;;5072332;28;20234;-90
2022/01/29 12:07:57;;;;;;;13.27;2.47;;;25.70;99.90;;;;;;5082358;28;20226;-91
2022/01/29 12:10:41;;;;;;;11.75;2.72;;;25.70;99.90;;;;;;5098285;28;20233;-90
2022/01/29 12:13:14;;;;;;;13.90;2.80;;;25.70;99.90;;;;;;5056394;28;20211;-91
2022/01/29 12:15:46;;;;;;;13.90;2.40;;;25.70;99.90;;;;;;5057670;28;20196;-91
2022/01/29 12:18:38;;;;;;;13.98;2.75;;;25.70;99.90;;;;;;5068270;28;20212;-92
2022/01/29 12:21:09;;;;;;;13.30;2.90;;;25.70;99.90;;;;;;5063051;28;20201;-92
2022/01/29 12:23:54;;;;;;;11.02;2.28;;;25.70;99.90;;;;;;5066123;28;20919;-96
2022/01/29 12:26:29;;;;;;;13.13;2.72;;;25.70;99.90;;;;;;5068420;28;20254;-95
2022/01/29 12:29:02;;;;;;;16.35;2.88;;;25.70;99.90;;;;;;5067626;28;20201;-95
2022/01/29 12:31:37;;;;;;;13.68;2.80;;;25.70;99.90;;;;;;5060092;28;22077;-95
2022/01/29 12:34:16;;;;;;;15.90;2.60;;;25.70;99.90;;;;;;5055358;28;20207;-93
2022/01/29 12:36:47;;;;;;;8.43;2.25;;;25.70;99.90;;;;;;5052785;28;20209;-89
2022/01/29 12:39:22;;;;;;;13.07;2.60;;;25.60;99.90;;;;;;5048747;28;20199;-90
2022/01/29 12:42:06;;;;;;;12.23;2.30;;;25.60;99.90;;;;;;5055638;28;20221;-91
2022/01/29 12:44:38;;;;;;;11.00;2.35;;;25.60;99.90;;;;;;5055927;28;20281;-93
2022/01/29 12:47:09;;;;;;;10.15;2.80;;;25.50;99.90;;;;;;5053624;28;20212;-94
2022/01/29 12:49:43;;;;;;;14.25;2.92;;;25.60;99.90;;;;;;5051628;28;20238;-94
2022/01/29 12:52:19;;;;;;;12.98;2.72;;;25.60;99.90;;;;;;5053943;28;20200;-94
2022/01/29 12:54:55;;;;;;;13.52;2.88;;;25.60;99.90;;;;;;5055732;28;20257;-95
2022/01/29 12:57:31;;;;;;;10.55;2.42;;;25.70;99.90;;;;;;5058451;28;20228;-90
2022/01/29 13:00:13;;;;;;;15.35;2.75;;;25.70;99.90;;;;;;5051328;28;20266;-93
2022/01/29 13:02:45;;;;;;;10.93;2.75;;;25.60;99.90;;;;;;5053292;28;20240;-95
2022/01/29 13:05:16;;;;;;;12.23;2.20;;;25.60;99.90;;;;;;5053864;28;20221;-94
2022/01/29 13:07:49;;;;;;;10.18;2.30;;;25.60;99.90;;;;;;5050711;28;20197;-92
2022/01/29 13:10:21;;;;;;;11.68;2.85;;;25.60;99.90;;;;;;5050865;28;20224;-94
2022/01/29 13:12:55;;;;;;;11.77;2.20;;;25.60;99.90;;;;;;5053454;28;20646;-90
2022/01/29 13:15:39;;;;;;;12.63;2.40;;;25.50;99.90;;;;;;5051448;28;20192;-87
2022/01/29 13:18:10;;;;;;;15.02;2.85;;;25.60;99.90;;;;;;5053999;28;20305;-88
2022/01/29 13:20:42;;;;;;;12.35;2.60;;;25.50;99.90;;;;;;5048958;28;20774;-90
2022/01/29 13:23:12;;;;;;;9.95;2.42;;;25.50;99.90;;;;;;5053379;28;20429;-92
2022/01/29 13:25:43;;;;;;;13.30;2.88;;;25.50;99.90;;;;;;5054517;28;20212;-86
2022/01/29 13:28:18;;;;;;;16.88;3.40;;;25.50;99.90;;;;;;5055421;28;20203;-92
2022/01/29 13:30:52;;;;;;;11.68;2.65;;;25.50;99.90;;;;;;5049838;28;21649;-90
2022/01/29 13:33:24;;;;;;;11.20;2.40;;;25.50;99.90;;;;;;5051245;28;20204;-92
2022/01/29 13:35:56;;;;;;;15.85;2.75;;;25.40;99.90;;;;;;5083517;28;20200;-94
2022/01/29 13:38:32;;;;;;;9.73;2.13;;;25.50;99.90;;;;;;5055361;28;20243;-88